Time;durP1;ratioP1;P1;durP2;ratioP2;P2;SDS_P1;SDS_P2;PMS_P1;PMS_P2;Temp;Humidity;BMP_temperature;BMP_pressure;BME280_temperature;BME280_humidity;BME280_pressure;Samples;Min_cycle;Max_cycle;Signal;HPM_P1;HPM_P2
2022/01/19 00:01:48;;;;;;;16.30;6.05;;;1.50;99.90;;;;;;4940667;29;20040;-84
2022/01/19 00:04:14;;;;;;;21.75;6.68;;;1.50;99.90;;;;;;4941931;29;20046;-86
2022/01/19 00:06:40;;;;;;;20.30;6.57;;;1.50;99.90;;;;;;4942558;29;20020;-86
2022/01/19 00:09:05;;;;;;;19.05;7.00;;;1.40;99.90;;;;;;4942304;29;20064;-85
2022/01/19 00:11:31;;;;;;;24.92;7.20;;;1.40;99.90;;;;;;4942131;29;20012;-86
2022/01/19 00:13:57;;;;;;;18.80;6.88;;;1.40;99.90;;;;;;4941774;29;20027;-84
2022/01/19 00:16:24;;;;;;;14.02;6.20;;;1.40;99.90;;;;;;4942530;29;20020;-86
2022/01/19 00:18:51;;;;;;;24.25;6.78;;;1.30;99.90;;;;;;4957738;29;20023;-85
2022/01/19 00:21:17;;;;;;;15.73;5.32;;;1.30;99.90;;;;;;4957416;29;20032;-84
2022/01/19 00:23:42;;;;;;;16.73;6.25;;;1.40;99.90;;;;;;4957457;29;20023;-86
2022/01/19 00:26:08;;;;;;;19.05;5.57;;;1.40;99.90;;;;;;4942039;29;20024;-84
2022/01/19 00:28:34;;;;;;;27.10;6.80;;;1.40;99.90;;;;;;4942146;29;20048;-83
2022/01/19 00:31:00;;;;;;;17.65;6.38;;;1.40;99.90;;;;;;4957205;29;20031;-85
2022/01/19 00:33:26;;;;;;;14.65;6.97;;;1.30;99.90;;;;;;4940212;29;20013;-85
2022/01/19 00:35:52;;;;;;;20.50;7.15;;;1.30;99.90;;;;;;4939686;29;20024;-85
2022/01/19 00:38:18;;;;;;;19.88;7.22;;;1.30;99.90;;;;;;4941892;29;20092;-84
2022/01/19 00:40:46;;;;;;;21.73;6.93;;;1.30;99.90;;;;;;4941078;29;20058;-86
2022/01/19 00:43:13;;;;;;;23.25;7.97;;;1.30;99.90;;;;;;4941184;29;20033;-84
2022/01/19 00:45:39;;;;;;;22.42;7.47;;;1.20;99.90;;;;;;4941831;29;20270;-86
2022/01/19 00:48:04;;;;;;;23.42;7.28;;;1.20;99.90;;;;;;4957300;29;20012;-85
2022/01/19 00:50:31;;;;;;;20.52;7.78;;;1.20;99.90;;;;;;4941184;29;20350;-85
2022/01/19 00:52:57;;;;;;;22.80;7.50;;;1.10;99.90;;;;;;4919135;29;20052;-85
2022/01/19 00:55:25;;;;;;;23.17;7.57;;;1.10;99.90;;;;;;4914032;29;20396;-86
2022/01/19 00:57:51;;;;;;;21.38;6.68;;;1.10;99.90;;;;;;4931058;29;20092;-85
2022/01/19 01:00:20;;;;;;;21.30;6.97;;;1.10;99.90;;;;;;4932952;29;20044;-85
2022/01/19 01:02:46;;;;;;;21.38;7.28;;;1.10;99.90;;;;;;4928149;29;20084;-84
2022/01/19 01:05:12;;;;;;;16.17;6.30;;;1.10;99.90;;;;;;4929487;29;20032;-84
2022/01/19 01:07:38;;;;;;;20.60;7.63;;;1.10;99.90;;;;;;4939470;29;20035;-84
2022/01/19 01:10:11;;;;;;;26.65;7.35;;;1.20;99.90;;;;;;4939041;29;20020;-85
2022/01/19 01:12:47;;;;;;;19.50;6.75;;;1.10;99.90;;;;;;4939471;29;20027;-84
2022/01/19 01:15:36;;;;;;;20.67;7.05;;;1.10;99.90;;;;;;4940372;29;20016;-86
2022/01/19 01:20:36;;;;;;;23.02;6.25;;;1.10;99.90;;;;;;4931088;29;20032;-87
2022/01/19 01:23:05;;;;;;;15.90;6.63;;;1.10;99.90;;;;;;4930602;29;20025;-86
2022/01/19 01:25:31;;;;;;;17.77;6.90;;;1.10;99.90;;;;;;4933911;29;20029;-85
2022/01/19 01:27:57;;;;;;;14.60;6.90;;;1.00;99.90;;;;;;4934511;29;20036;-85
2022/01/19 01:30:23;;;;;;;21.05;7.32;;;1.00;99.90;;;;;;4924412;29;20496;-87
2022/01/19 01:32:48;;;;;;;18.05;7.30;;;1.00;99.90;;;;;;4924332;29;20611;-86
2022/01/19 01:35:15;;;;;;;19.65;6.35;;;1.00;99.90;;;;;;4936983;29;20108;-87
2022/01/19 01:37:40;;;;;;;24.38;7.25;;;0.90;99.90;;;;;;4927134;29;20059;-83
2022/01/19 01:40:09;;;;;;;16.30;6.45;;;0.90;99.90;;;;;;4940527;29;20031;-82
2022/01/19 01:42:36;;;;;;;17.75;7.07;;;0.80;99.90;;;;;;4937124;29;20080;-87
2022/01/19 01:45:03;;;;;;;17.17;6.47;;;0.80;99.90;;;;;;4925666;29;20032;-86
2022/01/19 01:47:32;;;;;;;18.05;6.72;;;0.90;99.90;;;;;;4923422;29;20127;-86
2022/01/19 01:55:19;;;;;;;18.50;6.20;;;1.00;99.90;;;;;;4931791;29;20056;-86
2022/01/19 01:57:45;;;;;;;18.52;6.65;;;0.90;99.90;;;;;;4940158;29;20016;-84
2022/01/19 02:00:16;;;;;;;18.90;6.97;;;0.90;99.90;;;;;;4940671;29;20008;-84
2022/01/19 02:02:46;;;;;;;28.98;7.35;;;0.90;99.90;;;;;;4941570;29;20032;-83
2022/01/19 02:05:18;;;;;;;17.45;6.63;;;0.90;99.90;;;;;;4940704;29;20039;-83
2022/01/19 02:08:00;;;;;;;29.23;7.65;;;0.90;99.90;;;;;;4941535;29;20028;-83
2022/01/19 02:16:26;;;;;;;17.92;6.50;;;0.80;99.90;;;;;;4950236;29;20524;-84
2022/01/19 02:24:03;;;;;;;19.85;7.32;;;0.80;99.90;;;;;;4933133;29;20052;-84
2022/01/19 02:26:44;;;;;;;17.60;6.95;;;0.90;99.90;;;;;;4937398;29;20083;-85
2022/01/19 02:42:39;;;;;;;19.98;7.40;;;0.90;99.90;;;;;;4934583;29;20047;-85
2022/01/19 02:49:58;;;;;;;17.23;7.20;;;0.80;99.90;;;;;;4931664;29;20036;-87
2022/01/19 02:52:24;;;;;;;19.63;7.90;;;0.80;99.90;;;;;;4932293;29;20031;-86
2022/01/19 02:54:51;;;;;;;21.58;7.68;;;0.80;99.90;;;;;;4935371;29;20044;-86
2022/01/19 02:57:23;;;;;;;21.35;7.50;;;0.70;99.90;;;;;;4933259;29;20032;-86
2022/01/19 03:10:38;;;;;;;29.15;8.05;;;0.60;99.90;;;;;;4941059;29;20100;-85
2022/01/19 03:13:04;;;;;;;18.67;7.53;;;0.60;99.90;;;;;;4924766;29;20012;-83
2022/01/19 03:15:31;;;;;;;21.50;7.93;;;0.60;99.90;;;;;;4940549;29;20064;-86
2022/01/19 03:17:59;;;;;;;19.27;6.68;;;0.50;99.90;;;;;;4941119;29;20043;-82
2022/01/19 03:20:27;;;;;;;25.30;8.07;;;0.50;99.90;;;;;;4942414;29;20020;-85
2022/01/19 03:23:35;;;;;;;23.30;7.13;;;0.50;99.90;;;;;;4939238;29;20032;-84
2022/01/19 03:25:42;;;;;;;15.23;6.40;;;0.50;99.90;;;;;;4940224;29;20046;-85
2022/01/19 03:28:08;;;;;;;20.27;7.03;;;0.50;99.90;;;;;;4942865;29;20043;-83
2022/01/19 03:30:34;;;;;;;17.90;7.05;;;0.50;99.90;;;;;;4942293;29;20036;-83
2022/01/19 03:33:00;;;;;;;14.52;6.82;;;0.50;99.90;;;;;;4941847;29;20036;-86
2022/01/19 03:35:26;;;;;;;23.33;6.72;;;0.50;99.90;;;;;;4941861;29;20064;-84
2022/01/19 03:37:52;;;;;;;18.10;6.60;;;0.40;99.90;;;;;;4936293;29;20052;-85
2022/01/19 03:40:18;;;;;;;16.98;6.70;;;0.50;99.90;;;;;;4934661;29;20039;-85
2022/01/19 03:42:44;;;;;;;16.98;5.85;;;0.40;99.90;;;;;;4932762;29;20072;-86
2022/01/19 03:45:11;;;;;;;25.38;6.70;;;0.40;99.90;;;;;;4929045;29;20055;-87
2022/01/19 03:47:49;;;;;;;17.67;6.63;;;0.40;99.90;;;;;;4931265;29;20489;-86
2022/01/19 03:50:15;;;;;;;16.05;6.28;;;0.40;99.90;;;;;;4929490;29;20036;-86
2022/01/19 03:52:40;;;;;;;15.90;6.18;;;0.30;99.90;;;;;;4926744;29;20035;-86
2022/01/19 03:55:08;;;;;;;16.40;6.18;;;0.30;99.90;;;;;;4934834;29;20028;-84
2022/01/19 03:57:34;;;;;;;19.90;6.55;;;0.20;99.90;;;;;;4935720;29;20058;-88
2022/01/19 04:00:00;;;;;;;21.45;5.97;;;0.20;99.90;;;;;;4923909;29;20036;-87
2022/01/19 04:02:27;;;;;;;15.50;5.68;;;0.20;99.90;;;;;;4926146;29;20512;-86
2022/01/19 04:05:05;;;;;;;18.90;6.40;;;0.10;99.90;;;;;;4927917;29;20024;-87
2022/01/19 04:07:33;;;;;;;12.32;5.55;;;0.10;99.90;;;;;;4930028;29;20111;-86
2022/01/19 04:09:59;;;;;;;17.15;6.20;;;0.10;99.90;;;;;;4927837;29;20060;-86
2022/01/19 04:15:12;;;;;;;24.20;6.50;;;0.10;99.90;;;;;;4925983;29;20125;-84
2022/01/19 04:17:45;;;;;;;17.17;6.45;;;0.10;99.90;;;;;;4927658;29;20028;-86
2022/01/19 04:20:11;;;;;;;23.15;6.57;;;0.10;99.90;;;;;;4914715;29;20040;-85
2022/01/19 04:22:38;;;;;;;16.77;6.80;;;0.10;99.90;;;;;;4938813;29;20028;-84
2022/01/19 04:25:07;;;;;;;24.30;7.78;;;0.10;99.90;;;;;;4936842;29;20105;-85
2022/01/19 04:27:33;;;;;;;18.33;6.80;;;0.10;99.90;;;;;;4935457;29;20032;-84
2022/01/19 04:30:08;;;;;;;17.85;6.65;;;0.10;99.90;;;;;;4919132;29;20063;-84
2022/01/19 04:35:18;;;;;;;24.63;6.38;;;0.10;99.90;;;;;;4935190;29;20032;-82
2022/01/19 05:15:39;;;;;;;25.70;7.35;;;-0.10;99.90;;;;;;4940774;29;20040;-83
2022/01/19 05:18:09;;;;;;;24.30;7.20;;;-0.10;99.90;;;;;;4939808;29;20020;-85
2022/01/19 05:20:35;;;;;;;22.83;8.32;;;0.00;99.90;;;;;;4940035;29;20035;-85
2022/01/19 05:23:01;;;;;;;18.58;7.03;;;0.00;99.90;;;;;;4940358;29;20163;-83
2022/01/19 05:25:27;;;;;;;25.45;7.90;;;0.00;99.90;;;;;;4922660;29;20104;-85
2022/01/19 05:28:06;;;;;;;20.88;7.43;;;0.00;99.90;;;;;;4937068;29;20095;-85
2022/01/19 05:30:32;;;;;;;24.23;7.75;;;0.00;99.90;;;;;;4933405;29;20028;-86
2022/01/19 05:32:59;;;;;;;24.58;7.05;;;0.00;99.90;;;;;;4937607;29;20035;-83
2022/01/19 05:35:27;;;;;;;18.00;7.75;;;0.00;99.90;;;;;;4936044;29;20036;-85
2022/01/19 05:38:25;;;;;;;21.23;8.35;;;0.00;99.90;;;;;;4929127;29;20008;-84
2022/01/19 05:41:09;;;;;;;23.38;7.97;;;-0.10;99.90;;;;;;4938915;29;20111;-83
2022/01/19 05:43:39;;;;;;;23.45;8.85;;;-0.10;99.90;;;;;;4975562;23;20043;-88
2022/01/19 05:46:05;;;;;;;22.20;8.30;;;-0.10;99.90;;;;;;4945987;29;20083;-86
2022/01/19 05:48:34;;;;;;;20.73;8.10;;;-0.10;99.90;;;;;;4945414;29;20031;-88
2022/01/19 05:51:00;;;;;;;31.55;8.90;;;-0.10;99.90;;;;;;4946430;29;20039;-89
2022/01/19 05:53:30;;;;;;;23.02;7.55;;;-0.20;99.90;;;;;;4947735;29;20039;-86
2022/01/19 05:55:56;;;;;;;20.45;7.90;;;-0.20;99.90;;;;;;4949243;29;20039;-88
2022/01/19 05:58:22;;;;;;;17.80;7.70;;;-0.10;99.90;;;;;;4948183;29;20028;-89
2022/01/19 06:00:52;;;;;;;24.02;8.50;;;-0.20;99.90;;;;;;4961756;29;20028;-88
2022/01/19 06:03:18;;;;;;;30.52;10.38;;;-0.20;99.90;;;;;;4947444;29;20020;-88
2022/01/19 06:06:07;;;;;;;32.75;9.55;;;-0.20;99.90;;;;;;4948424;29;20051;-86
2022/01/19 06:09:09;;;;;;;33.15;9.98;;;-0.30;99.90;;;;;;4909928;29;20017;-87
2022/01/19 06:11:35;;;;;;;25.33;9.18;;;-0.30;99.90;;;;;;4942844;29;20071;-85
2022/01/19 06:14:03;;;;;;;30.75;9.48;;;-0.30;99.90;;;;;;4955736;29;20024;-88
2022/01/19 06:16:29;;;;;;;27.92;9.73;;;-0.30;99.90;;;;;;4960525;29;20123;-88
2022/01/19 06:18:55;;;;;;;26.83;9.93;;;-0.30;99.90;;;;;;4960356;29;20032;-88
2022/01/19 06:21:22;;;;;;;31.35;10.65;;;-0.30;99.90;;;;;;4944395;29;20031;-86
2022/01/19 06:23:50;;;;;;;27.00;8.98;;;-0.20;99.90;;;;;;4960002;28;20032;-88
2022/01/19 06:26:19;;;;;;;33.03;10.07;;;-0.30;99.90;;;;;;4960298;29;20051;-87
2022/01/19 06:28:45;;;;;;;26.95;9.32;;;-0.30;99.90;;;;;;4945017;29;20030;-87
2022/01/19 06:31:12;;;;;;;26.45;9.50;;;-0.30;99.90;;;;;;4948598;29;20106;-86
2022/01/19 06:33:39;;;;;;;33.10;10.73;;;-0.40;99.90;;;;;;4948594;29;20052;-89
2022/01/19 06:36:06;;;;;;;21.60;9.25;;;-0.40;99.90;;;;;;4947343;29;20099;-88
2022/01/19 06:38:42;;;;;;;40.75;10.48;;;-0.40;99.90;;;;;;4954295;29;20035;-89
2022/01/19 06:41:10;;;;;;;32.58;10.48;;;-0.50;99.90;;;;;;4970317;29;20038;-86
2022/01/19 06:43:38;;;;;;;22.67;9.35;;;-0.40;99.90;;;;;;4957928;29;20043;-88
2022/01/19 06:46:04;;;;;;;31.42;9.48;;;-0.40;99.90;;;;;;4960107;29;20112;-88
2022/01/19 06:48:31;;;;;;;26.67;10.57;;;-0.30;99.90;;;;;;4960715;29;20027;-86
2022/01/19 06:51:00;;;;;;;30.83;10.45;;;-0.40;99.90;;;;;;4961074;29;20075;-86
2022/01/19 06:53:35;;;;;;;36.95;11.20;;;-0.30;99.90;;;;;;4977152;28;20031;-85
2022/01/19 06:56:18;;;;;;;27.00;10.68;;;-0.40;99.90;;;;;;4961259;29;20039;-86
2022/01/19 06:58:45;;;;;;;29.98;10.48;;;-0.30;99.90;;;;;;4977483;28;20062;-86
2022/01/19 07:01:24;;;;;;;33.22;10.32;;;-0.40;99.90;;;;;;4977109;28;20048;-85
2022/01/19 07:04:06;;;;;;;37.83;10.68;;;-0.40;99.90;;;;;;4976385;28;20028;-85
2022/01/19 07:06:34;;;;;;;26.17;10.52;;;-0.40;99.90;;;;;;4960174;29;20066;-86
2022/01/19 07:09:26;;;;;;;26.90;9.45;;;-0.40;99.90;;;;;;4953269;29;20032;-84
2022/01/19 07:11:56;;;;;;;34.47;11.10;;;-0.30;99.90;;;;;;4955658;29;20036;-87
2022/01/19 07:14:22;;;;;;;25.42;10.13;;;-0.20;99.90;;;;;;4951691;29;20055;-87
2022/01/19 07:16:50;;;;;;;34.20;10.32;;;-0.10;99.90;;;;;;4950255;29;20028;-85
2022/01/19 07:19:17;;;;;;;32.45;9.80;;;0.10;99.90;;;;;;4951782;29;20038;-85
2022/01/19 07:21:46;;;;;;;24.50;8.82;;;0.20;99.90;;;;;;4949703;29;20039;-86
2022/01/19 07:24:14;;;;;;;23.17;8.93;;;0.30;99.90;;;;;;4947588;29;20019;-88
2022/01/19 07:26:40;;;;;;;31.88;9.02;;;0.20;99.90;;;;;;4948360;29;20047;-86
2022/01/19 07:29:08;;;;;;;35.85;10.88;;;0.30;99.90;;;;;;4940322;29;20027;-86
2022/01/19 07:31:34;;;;;;;34.65;10.43;;;0.20;99.90;;;;;;4974453;28;20099;-86
2022/01/19 07:34:04;;;;;;;31.58;9.68;;;0.30;99.90;;;;;;4970915;28;20539;-87
2022/01/19 07:36:31;;;;;;;34.17;10.18;;;0.30;99.90;;;;;;4950745;28;20090;-86
2022/01/19 07:38:57;;;;;;;30.40;11.35;;;0.30;99.90;;;;;;4966897;29;20082;-85
2022/01/19 07:41:23;;;;;;;27.17;11.70;;;0.30;99.90;;;;;;4966237;29;20035;-88
2022/01/19 07:43:52;;;;;;;32.95;13.02;;;0.30;99.90;;;;;;4956440;29;20055;-86
2022/01/19 07:46:24;;;;;;;34.97;12.40;;;0.30;99.90;;;;;;4960645;29;20518;-86
2022/01/19 07:49:02;;;;;;;37.28;12.48;;;0.30;99.90;;;;;;4966741;28;20102;-87
2022/01/19 07:51:51;;;;;;;42.28;12.63;;;0.40;99.90;;;;;;4957696;28;20039;-87
2022/01/19 07:54:35;;;;;;;35.33;11.95;;;0.40;99.90;;;;;;4958802;28;20046;-86
2022/01/19 07:57:07;;;;;;;39.35;12.50;;;0.40;99.90;;;;;;4937211;29;20067;-87
2022/01/19 07:59:52;;;;;;;35.65;11.25;;;0.50;99.90;;;;;;4947007;29;20038;-87
2022/01/19 08:02:18;;;;;;;34.85;11.80;;;0.50;99.90;;;;;;4943489;29;20016;-86
2022/01/19 08:05:03;;;;;;;36.95;12.90;;;0.50;99.90;;;;;;4948608;29;20067;-85
2022/01/19 08:07:33;;;;;;;33.08;11.48;;;0.50;99.90;;;;;;4959507;29;20051;-85
2022/01/19 08:10:00;;;;;;;43.00;12.43;;;0.60;99.90;;;;;;4944522;29;20118;-86
2022/01/19 08:12:27;;;;;;;36.33;12.35;;;0.60;99.90;;;;;;4940716;29;20056;-87
2022/01/19 08:14:54;;;;;;;36.83;13.77;;;0.70;99.90;;;;;;4940199;29;20068;-87
2022/01/19 08:17:28;;;;;;;35.58;14.30;;;0.70;99.90;;;;;;4940257;29;20095;-86
2022/01/19 08:19:55;;;;;;;41.38;14.93;;;0.70;99.90;;;;;;4935986;29;20048;-88
2022/01/19 08:22:22;;;;;;;39.30;14.13;;;0.70;99.90;;;;;;4929265;29;20083;-86
2022/01/19 08:25:12;;;;;;;36.40;14.55;;;0.70;99.90;;;;;;4924618;29;20036;-88
2022/01/19 08:27:38;;;;;;;28.48;13.77;;;0.70;99.90;;;;;;4928165;29;20099;-87
2022/01/19 08:30:08;;;;;;;43.10;15.32;;;0.80;99.90;;;;;;4930412;29;20032;-87
2022/01/19 08:32:35;;;;;;;36.35;14.90;;;0.90;99.90;;;;;;4958833;28;20039;-87
2022/01/19 08:35:19;;;;;;;31.38;14.38;;;1.10;99.90;;;;;;4952598;29;20050;-87
2022/01/19 08:38:05;;;;;;;40.50;15.43;;;1.40;99.90;;;;;;4962603;28;20054;-87
2022/01/19 08:40:39;;;;;;;40.63;14.70;;;1.60;99.90;;;;;;4971576;28;20060;-87
2022/01/19 08:43:16;;;;;;;47.60;14.60;;;1.90;99.90;;;;;;4957838;29;20020;-87
2022/01/19 08:45:43;;;;;;;35.88;13.18;;;2.20;99.90;;;;;;4958800;29;20050;-88
2022/01/19 08:48:11;;;;;;;34.95;14.23;;;3.10;99.90;;;;;;4959022;29;20035;-85
2022/01/19 08:51:08;;;;;;;33.90;14.20;;;4.00;99.90;;;;;;4948023;29;20043;-86
2022/01/19 08:53:54;;;;;;;35.70;14.13;;;4.60;99.90;;;;;;4958396;29;20044;-85
2022/01/19 08:56:41;;;;;;;36.50;14.43;;;5.50;99.90;;;;;;4958126;29;20107;-84
2022/01/19 08:59:07;;;;;;;35.90;14.27;;;7.10;99.90;;;;;;4956820;29;20055;-86
2022/01/19 09:01:33;;;;;;;28.30;12.35;;;7.90;99.90;;;;;;4956299;29;20032;-84
2022/01/19 09:03:59;;;;;;;32.90;12.48;;;9.10;99.60;;;;;;4957610;29;20042;-85
2022/01/19 09:06:25;;;;;;;23.13;9.63;;;10.00;96.80;;;;;;4958015;29;20110;-83
2022/01/19 09:08:51;;;;;;;24.40;10.35;;;10.60;95.40;;;;;;4965691;28;20050;-85
2022/01/19 09:11:17;;;;;;;21.48;8.98;;;11.10;93.60;;;;;;4977044;28;20023;-84
2022/01/19 09:13:44;;;;;;;27.70;8.90;;;11.90;91.80;;;;;;4972974;28;20123;-86
2022/01/19 09:16:10;;;;;;;25.63;8.52;;;12.50;90.00;;;;;;4965301;29;20035;-86
2022/01/19 09:18:36;;;;;;;26.33;9.05;;;12.20;87.90;;;;;;4966601;29;20035;-83
2022/01/19 09:21:02;;;;;;;25.95;8.48;;;12.60;87.80;;;;;;4969042;28;20047;-85
2022/01/19 09:23:29;;;;;;;27.50;8.20;;;13.30;85.30;;;;;;4966420;28;20038;-84
2022/01/19 09:25:55;;;;;;;21.55;7.90;;;13.80;83.10;;;;;;4965053;29;20042;-87
2022/01/19 09:28:21;;;;;;;27.15;8.95;;;13.60;82.10;;;;;;4967175;28;20023;-85
2022/01/19 09:30:49;;;;;;;24.48;8.63;;;13.20;82.00;;;;;;4970862;28;20035;-86
2022/01/19 09:33:20;;;;;;;18.63;8.23;;;13.30;81.60;;;;;;4966082;28;20043;-86
2022/01/19 09:36:06;;;;;;;20.38;8.25;;;13.50;81.00;;;;;;4967027;28;20059;-87
2022/01/19 09:38:37;;;;;;;18.52;7.53;;;13.80;79.60;;;;;;4965712;29;20107;-85
2022/01/19 09:41:06;;;;;;;28.85;8.50;;;14.00;79.20;;;;;;4970994;28;20042;-85
2022/01/19 09:43:33;;;;;;;28.77;8.32;;;14.10;78.00;;;;;;4966528;28;20042;-84
2022/01/19 09:46:00;;;;;;;30.00;8.05;;;14.30;77.20;;;;;;4948588;29;20038;-84
2022/01/19 09:48:27;;;;;;;19.10;7.05;;;14.30;76.90;;;;;;4938339;29;20339;-85
2022/01/19 09:50:54;;;;;;;29.17;8.15;;;14.90;76.00;;;;;;4957669;29;20036;-84
2022/01/19 09:53:20;;;;;;;26.40;7.50;;;15.80;74.10;;;;;;4933674;29;20020;-85
2022/01/19 09:55:47;;;;;;;19.55;7.28;;;15.90;72.20;;;;;;4938491;29;20024;-84
2022/01/19 09:58:13;;;;;;;23.70;7.78;;;16.00;72.30;;;;;;4931735;29;20024;-86
2022/01/19 10:00:39;;;;;;;22.65;7.68;;;15.70;71.60;;;;;;4924668;29;20036;-86
2022/01/19 10:03:24;;;;;;;21.80;7.22;;;15.90;71.40;;;;;;4942098;29;20034;-85
2022/01/19 10:05:55;;;;;;;20.67;7.95;;;16.10;70.90;;;;;;4944465;29;20396;-86
2022/01/19 10:08:40;;;;;;;17.38;7.30;;;16.80;70.00;;;;;;4941830;29;20036;-90
2022/01/19 10:11:21;;;;;;;18.05;6.18;;;17.40;68.40;;;;;;4927336;29;20036;-88
2022/01/19 10:19:33;;;;;;;21.13;7.15;;;17.80;66.20;;;;;;4950909;29;20024;-86
2022/01/19 10:22:12;;;;;;;19.98;6.28;;;17.80;65.50;;;;;;4961676;29;20039;-87
2022/01/19 10:24:39;;;;;;;16.00;6.95;;;17.80;65.50;;;;;;4975993;28;20047;-85
2022/01/19 10:27:25;;;;;;;19.42;6.82;;;17.20;65.30;;;;;;4961332;29;20071;-86
2022/01/19 10:30:06;;;;;;;19.10;6.88;;;17.20;66.00;;;;;;4960957;29;20039;-88
2022/01/19 10:33:02;;;;;;;20.00;6.22;;;16.80;66.20;;;;;;4959680;29;20054;-89
2022/01/19 10:35:36;;;;;;;19.63;6.43;;;17.20;66.10;;;;;;4952598;29;20066;-89
2022/01/19 10:38:58;;;;;;;19.05;7.15;;;17.30;65.80;;;;;;4958095;29;20051;-92
2022/01/19 10:41:26;;;;;;;16.67;5.82;;;18.00;65.20;;;;;;4961637;29;20081;-91
2022/01/19 10:44:32;;;;;;;14.18;6.53;;;18.00;64.70;;;;;;4961373;29;20043;-91
2022/01/19 10:47:39;;;;;;;13.10;6.10;;;17.40;66.50;;;;;;4961275;29;20062;-91
2022/01/19 10:50:30;;;;;;;13.32;5.78;;;17.50;66.00;;;;;;5158179;23;20056;-90
2022/01/19 10:53:00;;;;;;;19.33;6.40;;;17.50;63.80;;;;;;4949271;29;20047;-91
2022/01/19 10:55:48;;;;;;;16.77;6.47;;;17.00;65.40;;;;;;4934702;29;20060;-89
2022/01/19 10:58:16;;;;;;;18.60;7.65;;;16.30;65.80;;;;;;4935848;29;20032;-91
2022/01/19 11:00:52;;;;;;;21.75;6.50;;;15.80;67.20;;;;;;4935386;29;20032;-90
2022/01/19 11:03:25;;;;;;;13.68;5.65;;;16.00;66.60;;;;;;4931075;29;20408;-89
2022/01/19 11:05:58;;;;;;;20.10;6.60;;;16.10;67.00;;;;;;4931542;29;20020;-90
2022/01/19 11:08:27;;;;;;;19.17;7.05;;;16.60;66.40;;;;;;4938056;29;20036;-88
2022/01/19 11:10:56;;;;;;;15.93;7.05;;;16.30;66.30;;;;;;4965525;29;20027;-89
2022/01/19 11:13:33;;;;;;;15.27;5.88;;;16.60;66.70;;;;;;4964787;28;20036;-87
2022/01/19 11:16:02;;;;;;;21.88;6.78;;;16.70;66.90;;;;;;4952117;29;20032;-89
2022/01/19 11:18:32;;;;;;;13.07;6.05;;;16.40;66.50;;;;;;4954632;29;20019;-87
2022/01/19 11:21:07;;;;;;;14.18;6.35;;;16.40;66.70;;;;;;4952634;29;20040;-89
2022/01/19 11:23:38;;;;;;;17.77;6.85;;;16.80;66.30;;;;;;4969561;28;20016;-89
2022/01/19 11:26:17;;;;;;;20.33;6.25;;;17.10;66.10;;;;;;4961403;29;20027;-89
2022/01/19 11:28:49;;;;;;;15.25;6.90;;;16.90;67.00;;;;;;4961471;28;20043;-86
2022/01/19 11:31:24;;;;;;;14.50;6.63;;;17.40;65.80;;;;;;4961006;29;20039;-87
2022/01/19 11:33:52;;;;;;;;;;;17.60;64.60;;;;;;4961447;29;20019;-88
2022/01/19 11:36:31;;;;;;;16.52;6.88;;;17.00;65.10;;;;;;4961258;29;19925;-87
2022/01/19 11:39:19;;;;;;;16.90;6.65;;;16.50;65.00;;;;;;4960729;29;20023;-85
2022/01/19 11:41:54;;;;;;;16.85;6.50;;;16.20;66.00;;;;;;4974642;29;20062;-88
2022/01/19 11:44:32;;;;;;;13.75;6.55;;;16.30;66.60;;;;;;4981132;23;20063;-85
2022/01/19 11:47:36;;;;;;;17.45;7.47;;;16.70;65.70;;;;;;4959776;29;20019;-85
2022/01/19 11:50:21;;;;;;;18.38;6.95;;;16.80;65.60;;;;;;4957678;29;20031;-86
2022/01/19 11:52:49;;;;;;;19.58;7.00;;;15.70;66.60;;;;;;4957883;29;20043;-87
2022/01/19 11:55:24;;;;;;;15.38;7.15;;;15.00;67.70;;;;;;4942623;29;20054;-86
2022/01/19 11:58:09;;;;;;;19.98;7.43;;;13.60;70.10;;;;;;4960389;29;20044;-84
2022/01/19 12:00:35;;;;;;;22.83;7.93;;;12.60;73.20;;;;;;4959516;29;20112;-87
2022/01/19 12:03:21;;;;;;;22.42;7.93;;;11.30;75.10;;;;;;4958660;29;20015;-85
2022/01/19 12:05:50;;;;;;;19.60;7.47;;;10.20;78.90;;;;;;4951391;29;20035;-87
2022/01/19 12:08:28;;;;;;;26.30;8.13;;;9.60;80.70;;;;;;4947654;29;20062;-85
2022/01/19 12:10:58;;;;;;;20.67;8.10;;;9.30;82.80;;;;;;4949011;29;20043;-86
2022/01/19 12:16:15;;;;;;;26.38;10.13;;;8.10;87.70;;;;;;4950474;29;20105;-86
2022/01/19 12:18:53;;;;;;;16.45;8.10;;;7.80;90.10;;;;;;4955414;29;20464;-83
2022/01/19 12:21:31;;;;;;;23.10;8.00;;;7.70;90.80;;;;;;4945662;29;20038;-86
2022/01/19 12:24:25;;;;;;;23.10;8.00;;;7.30;91.70;;;;;;4926884;29;20085;-86
2022/01/19 12:27:00;;;;;;;26.27;8.10;;;7.30;92.30;;;;;;4924063;29;20032;-85
2022/01/19 12:29:38;;;;;;;;;;;7.20;93.20;;;;;;4927605;29;20488;-86
2022/01/19 12:32:28;;;;;;;22.38;8.63;;;7.00;93.90;;;;;;4926148;29;19911;-87
2022/01/19 12:34:57;;;;;;;33.10;9.68;;;6.90;94.80;;;;;;4923235;29;20091;-86
2022/01/19 12:37:49;;;;;;;18.90;7.65;;;6.80;95.60;;;;;;4927868;29;20032;-87
2022/01/19 12:40:18;;;;;;;19.20;8.48;;;6.70;96.30;;;;;;4929162;29;20036;-87
2022/01/19 12:42:54;;;;;;;27.45;8.30;;;6.40;97.20;;;;;;4927594;29;20056;-86
2022/01/19 12:45:26;;;;;;;20.65;9.07;;;6.40;98.10;;;;;;4927962;29;20032;-85
2022/01/19 12:47:53;;;;;;;22.55;9.07;;;6.30;98.80;;;;;;4934788;29;20100;-87
2022/01/19 12:50:18;;;;;;;23.73;8.70;;;6.20;99.60;;;;;;4927271;29;20024;-85
2022/01/19 12:52:46;;;;;;;22.83;9.02;;;6.10;99.90;;;;;;4931514;29;20099;-85
2022/01/19 12:55:26;;;;;;;23.15;8.57;;;6.20;99.90;;;;;;4944076;29;20026;-88
2022/01/19 12:57:57;;;;;;;21.40;9.35;;;6.10;99.90;;;;;;4945642;29;20038;-85
2022/01/19 13:00:29;;;;;;;26.40;9.10;;;6.10;99.90;;;;;;4945211;29;20032;-86
2022/01/19 13:02:57;;;;;;;23.02;8.82;;;6.10;99.90;;;;;;4944459;29;20127;-87
2022/01/19 13:05:24;;;;;;;20.40;7.97;;;6.10;99.90;;;;;;4945181;29;20016;-84
2022/01/19 13:07:56;;;;;;;23.63;9.73;;;6.20;99.90;;;;;;4946395;29;20363;-86
2022/01/19 13:15:41;;;;;;;19.80;9.20;;;6.10;99.90;;;;;;4926929;29;20060;-85
2022/01/19 13:18:08;;;;;;;21.20;8.60;;;6.10;99.90;;;;;;4926484;29;20099;-87
2022/01/19 13:20:34;;;;;;;23.45;8.65;;;6.00;99.90;;;;;;4934145;29;20119;-87
2022/01/19 13:23:01;;;;;;;22.58;8.38;;;6.00;99.90;;;;;;4938505;29;20036;-87
2022/01/19 13:25:32;;;;;;;27.90;10.05;;;5.90;99.90;;;;;;4944897;29;20031;-86
2022/01/19 13:28:01;;;;;;;22.83;8.82;;;5.90;99.90;;;;;;4946718;29;20106;-87
2022/01/19 13:30:33;;;;;;;28.63;9.85;;;5.90;99.90;;;;;;4947833;29;20024;-86
2022/01/19 13:33:09;;;;;;;24.10;8.27;;;5.80;99.90;;;;;;4947674;29;20110;-86
2022/01/19 13:35:35;;;;;;;25.40;8.02;;;5.80;99.90;;;;;;4947778;29;20043;-85
2022/01/19 13:38:10;;;;;;;26.02;8.55;;;5.80;99.90;;;;;;4952386;29;20051;-85
2022/01/19 13:40:36;;;;;;;22.00;7.90;;;5.80;99.90;;;;;;4951542;29;20040;-86
2022/01/19 13:43:05;;;;;;;33.33;8.82;;;5.70;99.90;;;;;;4949333;29;20036;-85
2022/01/19 13:48:28;;;;;;;23.75;9.07;;;5.70;99.90;;;;;;4952620;29;20058;-85
2022/01/19 13:51:10;;;;;;;23.75;9.13;;;5.70;99.90;;;;;;4949286;29;20443;-86
2022/01/19 13:53:39;;;;;;;20.92;8.80;;;5.70;99.90;;;;;;4953726;29;20043;-86
2022/01/19 13:56:09;;;;;;;22.15;8.82;;;5.70;99.90;;;;;;4946400;29;20448;-87
2022/01/19 13:58:41;;;;;;;29.08;9.77;;;5.70;99.90;;;;;;4946443;29;20050;-85
2022/01/19 14:01:15;;;;;;;22.90;8.75;;;5.70;99.90;;;;;;4954526;29;20040;-87
2022/01/19 14:03:55;;;;;;;21.42;8.52;;;5.60;99.90;;;;;;4960419;29;20134;-85
2022/01/19 14:06:29;;;;;;;17.55;8.05;;;5.60;99.90;;;;;;4959435;29;20310;-84
2022/01/19 14:09:07;;;;;;;24.23;8.05;;;5.60;99.90;;;;;;4957140;29;20036;-86
2022/01/19 14:11:33;;;;;;;25.58;9.23;;;5.50;99.90;;;;;;4955092;29;20059;-86
2022/01/19 14:14:14;;;;;;;26.65;8.13;;;5.50;99.90;;;;;;4956908;29;20020;-83
2022/01/19 14:16:47;;;;;;;24.13;8.07;;;5.50;99.90;;;;;;4954240;29;20032;-86
2022/01/19 14:19:19;;;;;;;24.48;8.63;;;5.50;99.90;;;;;;4951152;29;20027;-87
2022/01/19 14:22:04;;;;;;;22.23;7.85;;;5.60;99.90;;;;;;4951597;29;20039;-85
2022/01/19 14:24:51;;;;;;;;;;;5.60;99.90;;;;;;4950257;29;20087;-86
2022/01/19 14:27:31;;;;;;;27.35;8.60;;;5.60;99.90;;;;;;4953434;29;19911;-85
2022/01/19 14:30:14;;;;;;;18.10;8.00;;;5.60;99.90;;;;;;4947346;29;20032;-85
2022/01/19 14:32:45;;;;;;;25.42;8.48;;;5.60;99.90;;;;;;4947144;29;20051;-86
2022/01/19 14:35:38;;;;;;;22.05;8.25;;;5.60;99.90;;;;;;4950986;29;20027;-86
2022/01/19 14:38:16;;;;;;;23.08;8.23;;;5.50;99.90;;;;;;4952964;29;20056;-86
2022/01/19 14:41:01;;;;;;;28.30;8.80;;;5.60;99.90;;;;;;4945934;29;20052;-86
2022/01/19 14:43:38;;;;;;;21.85;7.97;;;5.50;99.90;;;;;;4931407;29;20098;-87
2022/01/19 14:46:05;;;;;;;17.58;8.40;;;5.50;99.90;;;;;;4929781;29;20040;-84
2022/01/19 14:48:38;;;;;;;29.40;8.55;;;5.50;99.90;;;;;;4935480;29;20064;-85
2022/01/19 14:51:17;;;;;;;26.27;8.73;;;5.40;99.90;;;;;;4931833;29;20049;-85
2022/01/19 14:53:42;;;;;;;27.40;8.18;;;5.40;99.90;;;;;;4933418;29;20048;-87
2022/01/19 14:56:08;;;;;;;27.23;8.35;;;5.40;99.90;;;;;;4955807;29;20019;-86